aviador You're here:

OIMM Decoded Metar

MASHHAD (AFB/CIV in IRAN
Report Time2018-01-21 06:30:00
UTC Time2018-01-21 06:54:48
Flight Rules vfr VFR
Wind320° at 12 kt
W.Decomp.*RWY 31: 11.9 kt HW 1.5 kt RCW
W.Rank320° ranks 21
Current wind is above 320° avg. (8.3)
Visibility9999 m
Phenomena:N/A
Clouds:N/A
Expected CloudBase > 3,600 ft AGL from Temp-Dew spread
CeilingNone
Temp10°C (ISA +1)
Dew Point01°C (54% RH)
AAT3.9°C
QNH1018 hPa
Density Alt3,310 ft
Elevation3,215 ft
Report Wrong Elevation
Raw Report
METAR OIMM 210630Z 32012KT CAVOK 10/01 Q1018 A3008=

Extra information for OIMM:More info

Metar Taf Metar & Taf Last 4 Metars F.Rules Stats Wind Profile Meteogram Temp Stats Airport Information Weather charts Add Link Nearby VenuesMetar ALERT Operation Metar Decoded Social comments